createdAt,value
2019-02-10T00:01:44.039Z,16.70
2019-02-10T00:04:13.323Z,15.53
2019-02-10T00:06:42.616Z,21.70
2019-02-10T00:09:11.882Z,24.77
2019-02-10T00:11:41.175Z,16.40
2019-02-10T00:14:11.681Z,12.30
2019-02-10T00:16:40.973Z,14.30
2019-02-10T00:19:10.245Z,18.00
2019-02-10T00:21:39.569Z,13.30
2019-02-10T00:24:08.843Z,18.00
2019-02-10T00:26:38.146Z,24.10
2019-02-10T00:29:07.424Z,16.67
2019-02-10T00:31:36.707Z,16.07
2019-02-10T00:34:05.981Z,21.27
2019-02-10T00:36:35.281Z,25.87
2019-02-10T00:39:07.878Z,23.97
2019-02-10T00:41:37.181Z,23.23
2019-02-10T00:44:06.458Z,35.33
2019-02-10T00:46:35.751Z,28.60
2019-02-10T00:49:05.026Z,35.07
2019-02-10T00:51:34.321Z,17.33
2019-02-10T00:54:03.593Z,33.17
2019-02-10T00:56:32.901Z,40.27
2019-02-10T00:59:02.199Z,27.23
2019-02-10T01:01:31.477Z,34.83
2019-02-10T01:04:00.763Z,30.93
2019-02-10T01:06:30.046Z,20.17
2019-02-10T01:08:59.377Z,15.67
2019-02-10T01:11:28.663Z,20.20
2019-02-10T01:13:57.961Z,24.43
2019-02-10T01:16:27.255Z,32.93
2019-02-10T01:18:59.627Z,25.90
2019-02-10T01:21:28.920Z,29.07
2019-02-10T01:23:58.222Z,29.50
2019-02-10T01:26:27.511Z,28.07
2019-02-10T01:29:00.387Z,32.10
2019-02-10T01:31:29.672Z,19.03
2019-02-10T01:33:58.958Z,20.30
2019-02-10T01:36:28.238Z,28.93
2019-02-10T01:38:57.645Z,20.97
2019-02-10T01:41:26.920Z,34.07
2019-02-10T01:43:57.187Z,41.37
2019-02-10T01:46:26.466Z,34.77
2019-02-10T01:48:55.762Z,33.90
2019-02-10T01:51:25.038Z,20.97
2019-02-10T01:53:54.400Z,18.47
2019-02-10T01:56:23.716Z,20.47
2019-02-10T01:58:53.005Z,20.30
2019-02-10T02:01:22.337Z,21.50
2019-02-10T02:03:51.617Z,23.30
2019-02-10T02:06:20.951Z,28.00
2019-02-10T02:08:50.312Z,35.13
2019-02-10T02:11:19.590Z,56.17
2019-02-10T02:13:49.156Z,62.43
2019-02-10T02:16:18.449Z,37.73
2019-02-10T02:18:47.766Z,24.90
2019-02-10T02:21:17.050Z,22.37
2019-02-10T02:23:46.391Z,13.60
2019-02-10T02:26:21.724Z,17.33
2019-02-10T02:28:51.011Z,12.20
2019-02-10T02:31:20.293Z,18.27
2019-02-10T02:33:49.607Z,17.73
2019-02-10T02:36:18.942Z,14.90
2019-02-10T02:38:48.228Z,14.03
2019-02-10T02:41:17.527Z,12.03
2019-02-10T02:43:46.799Z,13.67
2019-02-10T02:46:17.050Z,12.27
2019-02-10T02:48:46.326Z,14.00
2019-02-10T02:51:15.625Z,13.70
2019-02-10T02:53:44.907Z,12.97
2019-02-10T02:56:14.208Z,13.03
2019-02-10T02:58:43.483Z,17.40
2019-02-10T03:01:13.122Z,14.43
2019-02-10T03:03:42.398Z,14.03
2019-02-10T03:06:11.763Z,96.07
2019-02-10T03:08:41.035Z,25.30
2019-02-10T03:11:10.335Z,14.57
2019-02-10T03:13:39.612Z,19.83
2019-02-10T03:16:08.959Z,15.97
2019-02-10T03:18:38.275Z,15.27
2019-02-10T03:21:07.568Z,15.00
2019-02-10T03:23:36.837Z,19.27
2019-02-10T03:26:06.138Z,18.43
2019-02-10T03:28:54.752Z,13.57
2019-02-10T03:31:25.044Z,23.20
2019-02-10T03:33:56.168Z,13.20
2019-02-10T03:36:25.458Z,15.70
2019-02-10T03:39:14.088Z,17.03
2019-02-10T03:41:43.363Z,19.30
2019-02-10T03:44:12.716Z,19.50
2019-02-10T03:46:42.013Z,15.03
2019-02-10T03:49:11.293Z,13.93
2019-02-10T03:51:40.636Z,14.43
2019-02-10T03:54:09.938Z,11.63
2019-02-10T03:56:39.272Z,13.90
2019-02-10T03:59:08.575Z,11.93
2019-02-10T04:01:37.945Z,9.33
2019-02-10T04:04:27.541Z,7.00
2019-02-10T04:06:56.814Z,7.13
2019-02-10T04:09:26.102Z,10.87
2019-02-10T04:11:55.367Z,8.67
2019-02-10T04:14:24.650Z,7.70
2019-02-10T04:16:53.927Z,7.00
2019-02-10T04:19:23.226Z,8.33
2019-02-10T04:21:52.506Z,4.03
2019-02-10T04:24:22.847Z,7.67
2019-02-10T04:26:52.249Z,8.23
2019-02-10T04:29:21.539Z,5.13
2019-02-10T04:31:50.811Z,6.03
2019-02-10T04:34:20.122Z,10.00
2019-02-10T04:36:49.391Z,8.90
2019-02-10T04:39:18.738Z,10.37
2019-02-10T04:41:48.011Z,8.70
2019-02-10T04:44:17.410Z,9.13
2019-02-10T04:46:46.822Z,5.27
2019-02-10T04:49:16.247Z,4.90
2019-02-10T04:51:45.562Z,5.27
2019-02-10T04:54:14.851Z,5.97
2019-02-10T04:56:44.416Z,5.90
2019-02-10T04:59:13.704Z,6.40
2019-02-10T05:01:42.973Z,5.90
2019-02-10T05:04:12.256Z,7.47
2019-02-10T05:06:41.542Z,9.40
2019-02-10T05:09:10.832Z,5.90
2019-02-10T05:11:47.006Z,5.10
2019-02-10T05:14:16.295Z,7.20
2019-02-10T05:16:46.648Z,6.53
2019-02-10T05:19:15.939Z,7.67
2019-02-10T05:21:45.384Z,6.83
2019-02-10T05:24:14.823Z,3.57
2019-02-10T05:26:44.793Z,5.20
2019-02-10T05:29:14.548Z,6.93
2019-02-10T05:31:44.062Z,5.77
2019-02-10T05:34:14.953Z,4.77
2019-02-10T05:36:44.252Z,6.90
2019-02-10T05:39:13.562Z,3.03
2019-02-10T05:41:42.900Z,4.00
2019-02-10T05:44:12.210Z,3.33
2019-02-10T05:46:41.487Z,5.80
2019-02-10T05:49:10.770Z,4.90
2019-02-10T05:51:40.302Z,3.87
2019-02-10T05:54:09.623Z,3.27
2019-02-10T05:56:38.981Z,3.70
2019-02-10T05:59:08.287Z,5.43
2019-02-10T06:02:02.667Z,10.00
2019-02-10T06:04:43.350Z,8.73
2019-02-10T06:07:16.980Z,10.73
2019-02-10T06:09:46.310Z,9.93
2019-02-10T06:12:15.602Z,12.93
2019-02-10T06:14:44.926Z,7.80
2019-02-10T06:20:23.770Z,9.57
2019-02-10T06:22:53.081Z,6.73
2019-02-10T06:25:22.468Z,9.20
2019-02-10T06:27:51.751Z,7.50
2019-02-10T06:30:21.104Z,10.47
2019-02-10T06:32:50.654Z,10.17
2019-02-10T06:35:19.959Z,9.10
2019-02-10T06:37:49.254Z,4.63
2019-02-10T06:40:18.545Z,6.17
2019-02-10T06:42:47.860Z,2.67
2019-02-10T06:45:17.211Z,3.57
2019-02-10T06:47:46.482Z,3.53
2019-02-10T06:50:15.779Z,2.40
2019-02-10T06:52:45.056Z,4.53
2019-02-10T06:55:14.348Z,4.90
2019-02-10T06:57:43.765Z,4.70
2019-02-10T07:00:20.392Z,4.73
2019-02-10T07:03:31.449Z,3.60
2019-02-10T07:06:01.113Z,3.67
2019-02-10T07:08:30.933Z,2.93
2019-02-10T07:11:00.355Z,5.13
2019-02-10T07:13:35.346Z,4.30
2019-02-10T07:16:37.580Z,3.93
2019-02-10T07:19:42.275Z,3.43
2019-02-10T07:22:34.333Z,2.60
2019-02-10T07:25:09.873Z,2.37
2019-02-10T07:27:39.186Z,2.37
2019-02-10T07:30:11.633Z,3.60
2019-02-10T07:32:44.062Z,3.37
2019-02-10T07:35:36.171Z,2.37
2019-02-10T07:38:13.758Z,3.47
2019-02-10T07:41:04.190Z,2.27
2019-02-10T07:43:59.895Z,4.20
2019-02-10T07:46:35.011Z,7.17
2019-02-10T07:49:28.437Z,6.23
2019-02-10T07:52:00.840Z,4.37
2019-02-10T07:54:51.214Z,8.40
2019-02-10T07:57:52.716Z,4.87
2019-02-10T08:00:34.862Z,5.57
2019-02-10T08:03:16.139Z,9.50
2019-02-10T08:05:51.175Z,3.93
2019-02-10T08:08:46.192Z,3.47
2019-02-10T08:11:33.791Z,3.83
2019-02-10T08:14:17.985Z,4.10
2019-02-10T08:17:05.397Z,4.13
2019-02-10T08:19:37.762Z,5.50
2019-02-10T08:22:31.281Z,3.17
2019-02-10T08:25:18.566Z,6.67
2019-02-10T08:27:51.050Z,70.07
2019-02-10T08:30:41.649Z,36.93
2019-02-10T08:33:16.588Z,30.70
2019-02-10T08:36:05.542Z,18.10
2019-02-10T08:38:54.381Z,15.07
2019-02-10T08:41:46.093Z,6.83
2019-02-10T08:44:18.836Z,3.03
2019-02-10T08:46:52.022Z,4.20
2019-02-10T08:49:53.029Z,5.83
2019-02-10T08:52:35.439Z,5.43
2019-02-10T08:55:07.242Z,21.07
2019-02-10T08:57:36.535Z,42.53
2019-02-10T09:00:09.068Z,11.13
2019-02-10T09:02:38.372Z,32.13
2019-02-10T09:05:08.296Z,9.83
2019-02-10T09:07:37.591Z,9.20
2019-02-10T09:10:26.211Z,13.30
2019-02-10T09:12:55.531Z,5.93
2019-02-10T09:15:24.812Z,3.00
2019-02-10T09:17:54.100Z,2.10
2019-02-10T09:20:23.564Z,5.00
2019-02-10T09:22:52.939Z,4.10
2019-02-10T09:25:24.294Z,5.80
2019-02-10T09:27:53.770Z,7.90
2019-02-10T09:30:23.046Z,6.07
2019-02-10T09:32:52.362Z,5.30
2019-02-10T09:35:21.649Z,3.63
2019-02-10T09:37:51.010Z,3.97
2019-02-10T09:40:20.294Z,11.67
2019-02-10T09:42:49.605Z,9.13
2019-02-10T09:45:19.070Z,14.87
2019-02-10T09:47:48.487Z,16.37
2019-02-10T09:50:19.232Z,13.77
2019-02-10T09:52:48.935Z,7.93
2019-02-10T09:55:18.230Z,6.03
2019-02-10T09:57:47.658Z,5.27
2019-02-10T10:00:16.958Z,6.67
2019-02-10T10:02:46.266Z,6.10
2019-02-10T10:05:15.643Z,12.73
2019-02-10T10:07:44.911Z,12.97
2019-02-10T10:10:20.457Z,10.83
2019-02-10T10:12:49.733Z,10.50
2019-02-10T10:15:19.302Z,26.20
2019-02-10T10:17:48.584Z,9.63
2019-02-10T10:20:18.897Z,6.33
2019-02-10T10:22:48.189Z,11.80
2019-02-10T10:25:17.490Z,7.67
2019-02-10T10:27:46.939Z,4.93
2019-02-10T10:30:18.614Z,7.23
2019-02-10T10:32:47.898Z,5.93
2019-02-10T10:35:17.198Z,7.80
2019-02-10T10:37:46.479Z,4.93
2019-02-10T10:40:15.775Z,24.73
2019-02-10T10:42:45.065Z,16.20
2019-02-10T10:45:15.284Z,4.87
2019-02-10T10:47:44.591Z,5.43
2019-02-10T10:50:14.445Z,4.13
2019-02-10T10:52:43.766Z,14.07
2019-02-10T10:55:13.544Z,10.97
2019-02-10T10:57:43.805Z,6.27
2019-02-10T11:00:15.250Z,6.30
2019-02-10T11:02:44.677Z,5.83
2019-02-10T11:05:14.905Z,6.17
2019-02-10T11:07:45.350Z,7.00
2019-02-10T11:10:14.653Z,6.17
2019-02-10T11:12:43.959Z,9.80
2019-02-10T11:15:15.107Z,6.07
2019-02-10T11:17:44.444Z,4.53
2019-02-10T11:20:13.994Z,5.07
2019-02-10T11:22:43.352Z,4.40
2019-02-10T11:25:13.016Z,12.87
2019-02-10T11:27:42.855Z,5.87
2019-02-10T11:30:14.457Z,6.40
2019-02-10T11:32:43.738Z,5.57
2019-02-10T11:35:13.226Z,9.07
2019-02-10T11:37:42.522Z,12.53
2019-02-10T11:40:13.400Z,17.57
2019-02-10T11:42:42.685Z,16.27
2019-02-10T11:45:14.059Z,10.40
2019-02-10T11:47:43.367Z,18.10
2019-02-10T11:50:13.782Z,9.93
2019-02-10T11:52:43.256Z,14.63
2019-02-10T11:55:12.773Z,11.90
2019-02-10T11:57:42.071Z,10.53
2019-02-10T12:00:16.611Z,12.83
2019-02-10T12:02:45.930Z,9.83
2019-02-10T12:05:34.626Z,9.63
2019-02-10T12:08:03.904Z,6.03
2019-02-10T12:10:33.165Z,8.73
2019-02-10T12:13:02.438Z,4.27
2019-02-10T12:15:31.729Z,6.17
2019-02-10T12:18:01.003Z,5.87
2019-02-10T12:20:30.268Z,5.83
2019-02-10T12:22:59.536Z,6.17
2019-02-10T12:25:28.927Z,3.50
2019-02-10T12:27:58.202Z,5.87
2019-02-10T12:30:28.132Z,3.03
2019-02-10T12:32:57.491Z,2.17
2019-02-10T12:35:26.771Z,3.60
2019-02-10T12:37:56.073Z,2.33
2019-02-10T12:40:25.462Z,1.73
2019-02-10T12:42:54.750Z,2.00
2019-02-10T12:45:24.034Z,4.60
2019-02-10T12:47:53.344Z,2.93
2019-02-10T12:50:22.613Z,2.10
2019-02-10T12:52:51.964Z,1.20
2019-02-10T12:55:21.242Z,4.43
2019-02-10T12:57:50.814Z,3.73
2019-02-10T13:00:20.564Z,2.47
2019-02-10T13:02:49.837Z,2.40
2019-02-10T13:05:20.071Z,1.33
2019-02-10T13:07:49.344Z,1.47
2019-02-10T13:10:18.845Z,1.63
2019-02-10T13:12:48.123Z,2.10
2019-02-10T13:15:17.397Z,2.13
2019-02-10T13:17:46.684Z,6.87
2019-02-10T13:20:16.933Z,5.07
2019-02-10T13:22:46.222Z,5.40
2019-02-10T13:25:15.473Z,8.90
2019-02-10T13:27:44.797Z,2.83
2019-02-10T13:30:17.945Z,3.27
2019-02-10T13:32:47.229Z,1.60
2019-02-10T13:35:16.551Z,1.53
2019-02-10T13:37:45.853Z,4.20
2019-02-10T13:40:18.317Z,4.57
2019-02-10T13:42:47.649Z,8.87
2019-02-10T13:45:16.905Z,5.57
2019-02-10T13:47:46.195Z,6.23
2019-02-10T13:50:17.653Z,29.70
2019-02-10T13:52:49.388Z,4.37
2019-02-10T13:55:18.902Z,7.17
2019-02-10T13:57:48.310Z,4.77
2019-02-10T14:00:22.815Z,3.93
2019-02-10T14:02:52.749Z,2.43
2019-02-10T14:05:22.052Z,3.83
2019-02-10T14:07:51.590Z,5.80
2019-02-10T14:10:25.697Z,9.40
2019-02-10T14:12:59.564Z,16.77
2019-02-10T14:15:28.904Z,15.70
2019-02-10T14:17:58.234Z,8.73
2019-02-10T14:20:27.490Z,7.70
2019-02-10T14:22:56.824Z,41.97
2019-02-10T14:25:26.110Z,66.97
2019-02-10T14:27:55.382Z,50.67
2019-02-10T14:30:24.950Z,52.40
2019-02-10T14:32:54.319Z,33.83
2019-02-10T14:35:23.604Z,28.67
2019-02-10T14:37:52.933Z,19.25
2019-02-10T14:40:22.253Z,37.10
2019-02-10T14:42:51.525Z,15.00
2019-02-10T14:45:20.800Z,16.07
2019-02-10T14:47:50.077Z,18.47
2019-02-10T14:50:19.373Z,12.80
2019-02-10T14:52:48.634Z,17.73
2019-02-10T14:55:17.937Z,19.77
2019-02-10T14:57:47.210Z,16.73
2019-02-10T15:00:17.052Z,22.83
2019-02-10T15:02:46.506Z,22.20
2019-02-10T15:05:15.766Z,9.43
2019-02-10T15:07:45.105Z,89.07
2019-02-10T15:10:16.913Z,36.67
2019-02-10T15:12:46.255Z,40.17
2019-02-10T15:15:15.554Z,68.30
2019-02-10T15:17:44.817Z,32.73
2019-02-10T15:20:14.354Z,57.20
2019-02-10T15:22:43.620Z,46.53
2019-02-10T15:25:13.970Z,7.90
2019-02-10T15:27:43.253Z,10.27
2019-02-10T15:30:14.076Z,12.43
2019-02-10T15:32:43.350Z,15.00
2019-02-10T15:35:12.693Z,19.93
2019-02-10T15:37:42.932Z,9.50
2019-02-10T15:40:13.149Z,38.40
2019-02-10T15:42:42.412Z,9.07
2019-02-10T15:45:15.423Z,23.47
2019-02-10T15:47:44.786Z,14.33
2019-02-10T15:50:14.617Z,16.73
2019-02-10T15:52:43.888Z,5.47
2019-02-10T15:55:13.926Z,3.90
2019-02-10T15:57:43.191Z,4.63
2019-02-10T16:00:15.778Z,12.50
2019-02-10T16:02:45.029Z,5.60
2019-02-10T16:05:14.311Z,1.87
2019-02-10T16:07:43.562Z,3.87
2019-02-10T16:10:12.869Z,3.13
2019-02-10T16:12:42.229Z,3.07
2019-02-10T16:15:13.053Z,0.67
2019-02-10T16:17:42.424Z,1.13
2019-02-10T16:20:14.536Z,3.87
2019-02-10T16:22:43.906Z,47.13
2019-02-10T16:25:13.162Z,5.43
2019-02-10T16:27:42.435Z,2.57
2019-02-10T16:30:14.133Z,8.93
2019-02-10T16:32:49.658Z,5.57
2019-02-10T16:35:15.334Z,3.97
2019-02-10T16:37:44.713Z,3.40
2019-02-10T16:40:22.210Z,3.83
2019-02-10T16:42:51.638Z,1.20
2019-02-10T16:45:20.958Z,6.33
2019-02-10T16:47:50.234Z,3.70
2019-02-10T16:50:19.497Z,14.97
2019-02-10T16:52:48.884Z,6.93
2019-02-10T16:55:21.346Z,39.77
2019-02-10T16:57:50.835Z,48.67
2019-02-10T17:00:20.169Z,40.83
2019-02-10T17:02:49.442Z,36.40
2019-02-10T17:05:18.717Z,92.53
2019-02-10T17:07:47.998Z,62.80
2019-02-10T17:10:19.478Z,99.27
2019-02-10T17:12:48.758Z,164.30
2019-02-10T17:15:18.043Z,49.87
2019-02-10T17:17:47.330Z,25.93
2019-02-10T17:20:16.738Z,53.97
2019-02-10T17:22:46.016Z,27.00
2019-02-10T17:25:20.562Z,41.87
2019-02-10T17:27:49.855Z,31.63
2019-02-10T17:30:19.129Z,58.60
2019-02-10T17:32:48.422Z,37.20
2019-02-10T17:35:17.689Z,46.40
2019-02-10T17:37:46.960Z,36.40
2019-02-10T17:40:19.320Z,21.30
2019-02-10T17:42:48.613Z,31.47
2019-02-10T17:45:17.860Z,26.30
2019-02-10T17:47:47.133Z,38.10
2019-02-10T17:50:17.525Z,19.10
2019-02-10T17:52:46.855Z,41.93
2019-02-10T17:55:16.111Z,30.73
2019-02-10T17:57:45.386Z,28.80
2019-02-10T18:00:16.664Z,30.73
2019-02-10T18:02:45.963Z,19.77
2019-02-10T18:05:15.295Z,27.37
2019-02-10T18:07:44.562Z,17.00
2019-02-10T18:10:14.972Z,13.57
2019-02-10T18:12:44.232Z,7.23
2019-02-10T18:15:15.213Z,20.83
2019-02-10T18:17:46.155Z,15.63
2019-02-10T18:20:19.886Z,17.50
2019-02-10T18:22:53.650Z,17.93
2019-02-10T18:25:27.454Z,10.03
2019-02-10T18:28:27.450Z,7.87
2019-02-10T18:30:58.365Z,13.80
2019-02-10T18:33:35.134Z,14.20
2019-02-10T18:36:07.122Z,3.03
2019-02-10T18:38:53.288Z,4.03
2019-02-10T18:41:24.305Z,1.07
2019-02-10T18:44:01.502Z,0.70
2019-02-10T18:46:41.782Z,1.07
2019-02-10T18:49:21.810Z,3.07
2019-02-10T18:52:09.021Z,3.63
2019-02-10T18:54:52.539Z,0.70
2019-02-10T18:57:30.315Z,1.03
2019-02-10T19:00:06.936Z,2.10
2019-02-10T19:02:56.071Z,1.80
2019-02-10T19:05:43.462Z,0.80
2019-02-10T19:08:20.234Z,1.07
2019-02-10T19:11:00.171Z,1.03
2019-02-10T19:13:33.828Z,0.80
2019-02-10T19:16:07.430Z,1.13
2019-02-10T19:19:01.549Z,1.73
2019-02-10T19:21:47.636Z,2.27
2019-02-10T19:24:33.671Z,2.80
2019-02-10T19:30:00.350Z,2.63
2019-02-10T19:32:40.263Z,3.10
2019-02-10T19:35:11.181Z,3.67
2019-02-10T19:37:58.264Z,2.67
2019-02-10T19:40:29.221Z,1.63
2019-02-10T19:43:02.739Z,1.23
2019-02-10T19:45:33.779Z,0.87
2019-02-10T19:48:10.784Z,2.93
2019-02-10T19:50:41.709Z,1.30
2019-02-10T19:53:13.750Z,1.50
2019-02-10T19:55:44.703Z,30.13
2019-02-10T19:58:24.705Z,22.10
2019-02-10T20:00:55.696Z,3.53
2019-02-10T20:03:43.300Z,3.13
2019-02-10T20:06:30.404Z,2.13
2019-02-10T20:09:07.087Z,19.23
2019-02-10T20:11:44.831Z,3.27
2019-02-10T20:14:15.747Z,5.63
2019-02-10T20:16:55.884Z,2.60
2019-02-10T20:19:32.854Z,4.23
2019-02-10T20:22:09.334Z,17.90
2019-02-10T20:24:40.271Z,79.90
2019-02-10T20:27:17.229Z,74.53
2019-02-10T20:29:50.865Z,108.20
2019-02-10T20:32:27.531Z,50.60
2019-02-10T20:35:01.589Z,59.73
2019-02-10T20:37:42.395Z,64.47
2019-02-10T20:40:15.914Z,81.17
2019-02-10T20:42:49.793Z,29.93
2019-02-10T20:45:26.482Z,64.10
2019-02-10T20:47:58.403Z,43.63
2019-02-10T20:50:29.376Z,49.20
2019-02-10T20:53:16.562Z,11.93
2019-02-10T20:55:47.550Z,40.43
2019-02-10T20:58:27.503Z,88.17
2019-02-10T21:01:07.034Z,30.57
2019-02-10T21:03:49.920Z,64.10
2019-02-10T21:06:37.108Z,73.03
2019-02-10T21:09:10.911Z,57.50
2019-02-10T21:11:44.864Z,66.40
2019-02-10T21:14:15.844Z,39.33
2019-02-10T21:16:55.810Z,57.73
2019-02-10T21:19:41.699Z,36.33
2019-02-10T21:22:21.783Z,63.47
2019-02-10T21:25:03.308Z,33.47
2019-02-10T21:27:34.387Z,32.27
2019-02-10T21:30:06.167Z,28.60
2019-02-10T21:32:43.134Z,24.97
2019-02-10T21:35:14.050Z,18.43
2019-02-10T21:37:44.989Z,160.43
2019-02-10T21:40:15.942Z,160.67
2019-02-10T21:42:49.583Z,59.60
2019-02-10T21:45:37.039Z,44.97
2019-02-10T21:48:07.980Z,27.83
2019-02-10T21:50:37.266Z,13.10
2019-02-10T21:53:06.565Z,17.10
2019-02-10T21:55:35.842Z,20.17
2019-02-10T21:58:05.152Z,5.97
2019-02-10T22:00:34.417Z,7.33
2019-02-10T22:03:03.711Z,9.83
2019-02-10T22:05:32.975Z,7.33
2019-02-10T22:08:02.279Z,3.90
2019-02-10T22:10:31.628Z,4.30
2019-02-10T22:13:16.148Z,2.17
2019-02-10T22:15:45.470Z,4.10
2019-02-10T22:18:14.743Z,7.10
2019-02-10T22:20:44.026Z,1.93
2019-02-10T22:23:13.314Z,1.17
2019-02-10T22:25:42.579Z,1.53
2019-02-10T22:28:11.866Z,1.43
2019-02-10T22:30:41.138Z,2.83
2019-02-10T22:33:10.643Z,1.67
2019-02-10T22:35:39.945Z,2.10
2019-02-10T22:38:09.222Z,0.80
2019-02-10T22:40:38.585Z,0.70
2019-02-10T22:43:07.850Z,0.70
2019-02-10T22:45:37.136Z,0.97
2019-02-10T22:48:06.403Z,0.90
2019-02-10T22:50:35.690Z,1.00
2019-02-10T22:53:04.958Z,1.60
2019-02-10T22:55:34.251Z,1.03
2019-02-10T22:58:03.542Z,0.97
2019-02-10T23:00:40.211Z,1.97
2019-02-10T23:03:09.499Z,0.80
2019-02-10T23:05:38.796Z,2.27
2019-02-10T23:08:09.138Z,0.70
2019-02-10T23:10:38.426Z,2.20
2019-02-10T23:13:07.720Z,1.07
2019-02-10T23:15:37.004Z,1.70
2019-02-10T23:18:06.289Z,1.20
2019-02-10T23:20:36.052Z,2.33
2019-02-10T23:23:05.350Z,2.73
2019-02-10T23:25:34.639Z,1.03
2019-02-10T23:28:03.918Z,0.90
2019-02-10T23:30:34.311Z,1.20
2019-02-10T23:33:03.587Z,0.83
2019-02-10T23:35:32.877Z,1.63
2019-02-10T23:38:02.150Z,1.00
2019-02-10T23:40:31.449Z,32.30
2019-02-10T23:43:02.158Z,11.43
2019-02-10T23:45:31.915Z,3.50
2019-02-10T23:48:01.189Z,4.03
2019-02-10T23:50:30.480Z,7.07
2019-02-10T23:53:00.824Z,5.53
2019-02-10T23:55:31.186Z,10.97
2019-02-10T23:58:00.474Z,8.07
